sensor_id;sensor_type;location;lat;lon;timestamp;pressure;altitude;pressure_sealevel;temperature;humidity
69257;BME280;56376;53.356;-1.748;2022-12-18T00:01:04;99906.56;;;0.64;100.00
69257;BME280;56376;53.356;-1.748;2022-12-18T00:03:35;99914.28;;;0.64;100.00
69257;BME280;56376;53.356;-1.748;2022-12-18T00:06:00;99905.72;;;0.63;100.00
69257;BME280;56376;53.356;-1.748;2022-12-18T00:08:26;99902.25;;;0.60;100.00
69257;BME280;56376;53.356;-1.748;2022-12-18T00:10:51;99911.66;;;0.59;100.00
69257;BME280;56376;53.356;-1.748;2022-12-18T00:13:16;99908.16;;;0.53;100.00
69257;BME280;56376;53.356;-1.748;2022-12-18T00:15:42;99928.78;;;0.57;100.00
69257;BME280;56376;53.356;-1.748;2022-12-18T00:18:07;99917.63;;;0.57;100.00
69257;BME280;56376;53.356;-1.748;2022-12-18T00:20:37;99914.19;;;0.55;100.00
69257;BME280;56376;53.356;-1.748;2022-12-18T00:23:03;99908.22;;;0.56;100.00
69257;BME280;56376;53.356;-1.748;2022-12-18T00:25:29;99910.72;;;0.51;100.00
69257;BME280;56376;53.356;-1.748;2022-12-18T00:27:54;99908.97;;;0.47;100.00
69257;BME280;56376;53.356;-1.748;2022-12-18T00:30:20;99911.53;;;0.46;100.00
69257;BME280;56376;53.356;-1.748;2022-12-18T00:32:45;99914.06;;;0.42;100.00
69257;BME280;56376;53.356;-1.748;2022-12-18T00:35:10;99911.47;;;0.42;100.00
69257;BME280;56376;53.356;-1.748;2022-12-18T00:37:36;99917.50;;;0.43;100.00
69257;BME280;56376;53.356;-1.748;2022-12-18T00:40:02;99919.19;;;0.42;100.00
69257;BME280;56376;53.356;-1.748;2022-12-18T00:42:27;99913.19;;;0.42;100.00
69257;BME280;56376;53.356;-1.748;2022-12-18T00:45:12;99903.78;;;0.41;100.00
69257;BME280;56376;53.356;-1.748;2022-12-18T00:47:37;99902.91;;;0.42;100.00
69257;BME280;56376;53.356;-1.748;2022-12-18T00:50:03;99895.16;;;0.37;100.00
69257;BME280;56376;53.356;-1.748;2022-12-18T00:52:28;99903.69;;;0.35;100.00
69257;BME280;56376;53.356;-1.748;2022-12-18T00:54:53;99903.66;;;0.32;100.00
69257;BME280;56376;53.356;-1.748;2022-12-18T00:57:19;99914.78;;;0.29;100.00
69257;BME280;56376;53.356;-1.748;2022-12-18T00:59:44;99902.72;;;0.24;100.00
69257;BME280;56376;53.356;-1.748;2022-12-18T01:02:10;99910.41;;;0.22;100.00
69257;BME280;56376;53.356;-1.748;2022-12-18T01:04:35;99904.38;;;0.20;100.00
69257;BME280;56376;53.356;-1.748;2022-12-18T01:07:00;99912.91;;;0.16;100.00
69257;BME280;56376;53.356;-1.748;2022-12-18T01:09:26;99910.28;;;0.11;100.00
69257;BME280;56376;53.356;-1.748;2022-12-18T01:11:51;99904.22;;;0.06;100.00
69257;BME280;56376;53.356;-1.748;2022-12-18T01:14:17;99908.47;;;0.03;100.00
69257;BME280;56376;53.356;-1.748;2022-12-18T01:16:42;99915.28;;;0.01;100.00
69257;BME280;56376;53.356;-1.748;2022-12-18T01:19:08;99916.13;;;-0.02;100.00
69257;BME280;56376;53.356;-1.748;2022-12-18T01:21:33;99899.78;;;-0.06;100.00
69257;BME280;56376;53.356;-1.748;2022-12-18T01:23:59;99895.50;;;-0.07;100.00
69257;BME280;56376;53.356;-1.748;2022-12-18T01:26:25;99895.47;;;-0.08;100.00
69257;BME280;56376;53.356;-1.748;2022-12-18T01:28:50;99892.03;;;-0.10;100.00
69257;BME280;56376;53.356;-1.748;2022-12-18T01:31:22;99886.97;;;-0.04;100.00
69257;BME280;56376;53.356;-1.748;2022-12-18T01:33:48;99887.84;;;-0.04;100.00
69257;BME280;56376;53.356;-1.748;2022-12-18T01:36:15;99899.03;;;0.00;100.00
69257;BME280;56376;53.356;-1.748;2022-12-18T01:38:41;99887.00;;;-0.01;100.00
69257;BME280;56376;53.356;-1.748;2022-12-18T01:41:07;99887.88;;;-0.02;100.00
69257;BME280;56376;53.356;-1.748;2022-12-18T01:46:11;99892.97;;;-0.04;100.00
69257;BME280;56376;53.356;-1.748;2022-12-18T01:48:37;99906.63;;;-0.06;100.00
69257;BME280;56376;53.356;-1.748;2022-12-18T01:51:06;99904.84;;;-0.13;100.00
69257;BME280;56376;53.356;-1.748;2022-12-18T01:53:32;99919.31;;;-0.18;100.00
69257;BME280;56376;53.356;-1.748;2022-12-18T01:55:58;99916.69;;;-0.23;100.00
69257;BME280;56376;53.356;-1.748;2022-12-18T01:58:33;99908.94;;;-0.28;100.00
69257;BME280;56376;53.356;-1.748;2022-12-18T02:01:00;99914.88;;;-0.32;100.00
69257;BME280;56376;53.356;-1.748;2022-12-18T02:03:26;99907.06;;;-0.39;100.00
69257;BME280;56376;53.356;-1.748;2022-12-18T02:06:04;99901.81;;;-0.47;100.00
69257;BME280;56376;53.356;-1.748;2022-12-18T02:27:48;99910.88;;;-0.71;100.00
69257;BME280;56376;53.356;-1.748;2022-12-18T02:30:15;99920.22;;;-0.74;100.00
69257;BME280;56376;53.356;-1.748;2022-12-18T02:32:43;99925.34;;;-0.74;100.00
69257;BME280;56376;53.356;-1.748;2022-12-18T02:35:14;99921.91;;;-0.76;100.00
69257;BME280;56376;53.356;-1.748;2022-12-18T02:37:42;99921.03;;;-0.77;100.00
69257;BME280;56376;53.356;-1.748;2022-12-18T02:40:09;99932.13;;;-0.79;100.00
69257;BME280;56376;53.356;-1.748;2022-12-18T02:42:35;99938.88;;;-0.84;100.00
69257;BME280;56376;53.356;-1.748;2022-12-18T02:45:01;99933.69;;;-0.88;100.00
69257;BME280;56376;53.356;-1.748;2022-12-18T02:47:32;99925.06;;;-0.93;100.00
69257;BME280;56376;53.356;-1.748;2022-12-18T02:58:18;99923.31;;;-0.95;100.00
69257;BME280;56376;53.356;-1.748;2022-12-18T03:04:24;99918.06;;;-1.01;100.00
69257;BME280;56376;53.356;-1.748;2022-12-18T03:06:55;99918.00;;;-1.06;100.00
69257;BME280;56376;53.356;-1.748;2022-12-18T03:09:32;99910.25;;;-1.11;100.00
69257;BME280;56376;53.356;-1.748;2022-12-18T03:12:04;99910.22;;;-1.12;100.00
69257;BME280;56376;53.356;-1.748;2022-12-18T03:14:54;99908.50;;;-1.13;100.00
69257;BME280;56376;53.356;-1.748;2022-12-18T03:17:23;99913.59;;;-1.15;100.00
69257;BME280;56376;53.356;-1.748;2022-12-18T03:19:51;99914.34;;;-1.19;100.00
69257;BME280;56376;53.356;-1.748;2022-12-18T03:22:18;99907.47;;;-1.21;100.00
69257;BME280;56376;53.356;-1.748;2022-12-18T03:24:45;99904.06;;;-1.22;100.00
69257;BME280;56376;53.356;-1.748;2022-12-18T03:27:14;99905.75;;;-1.22;100.00
69257;BME280;56376;53.356;-1.748;2022-12-18T03:29:50;99898.00;;;-1.27;100.00
69257;BME280;56376;53.356;-1.748;2022-12-18T03:32:31;99895.41;;;-1.28;100.00
69257;BME280;56376;53.356;-1.748;2022-12-18T03:35:01;99895.41;;;-1.28;100.00
69257;BME280;56376;53.356;-1.748;2022-12-18T03:37:32;99882.59;;;-1.28;100.00
69257;BME280;56376;53.356;-1.748;2022-12-18T03:39:57;99886.84;;;-1.29;100.00
69257;BME280;56376;53.356;-1.748;2022-12-18T03:43:01;99867.16;;;-1.32;100.00
69257;BME280;56376;53.356;-1.748;2022-12-18T03:45:34;99856.00;;;-1.34;100.00
69257;BME280;56376;53.356;-1.748;2022-12-18T03:48:17;99856.81;;;-1.36;100.00
69257;BME280;56376;53.356;-1.748;2022-12-18T03:55:51;99826.06;;;-1.36;100.00
69257;BME280;56376;53.356;-1.748;2022-12-18T03:58:19;99818.38;;;-1.38;100.00
69257;BME280;56376;53.356;-1.748;2022-12-18T04:00:47;99821.78;;;-1.37;100.00
69257;BME280;56376;53.356;-1.748;2022-12-18T04:03:16;99818.31;;;-1.41;100.00
69257;BME280;56376;53.356;-1.748;2022-12-18T04:05:46;99816.59;;;-1.42;100.00
69257;BME280;56376;53.356;-1.748;2022-12-18T04:08:13;99813.97;;;-1.45;100.00
69257;BME280;56376;53.356;-1.748;2022-12-18T04:10:39;99808.00;;;-1.44;100.00
69257;BME280;56376;53.356;-1.748;2022-12-18T04:13:05;99800.28;;;-1.47;100.00
69257;BME280;56376;53.356;-1.748;2022-12-18T04:15:35;99803.66;;;-1.49;100.00
69257;BME280;56376;53.356;-1.748;2022-12-18T04:18:02;99807.91;;;-1.50;100.00
69257;BME280;56376;53.356;-1.748;2022-12-18T04:20:27;99804.47;;;-1.52;100.00
69257;BME280;56376;53.356;-1.748;2022-12-18T04:22:53;99808.78;;;-1.49;100.00
69257;BME280;56376;53.356;-1.748;2022-12-18T04:25:18;99796.81;;;-1.49;100.00
69257;BME280;56376;53.356;-1.748;2022-12-18T04:27:44;99789.13;;;-1.49;100.00
69257;BME280;56376;53.356;-1.748;2022-12-18T04:30:09;99787.38;;;-1.52;100.00
69257;BME280;56376;53.356;-1.748;2022-12-18T04:32:35;99777.13;;;-1.52;100.00
69257;BME280;56376;53.356;-1.748;2022-12-18T04:35:01;99778.88;;;-1.50;100.00
69257;BME280;56376;53.356;-1.748;2022-12-18T04:37:26;99767.69;;;-1.54;100.00
69257;BME280;56376;53.356;-1.748;2022-12-18T04:39:52;99770.34;;;-1.51;100.00
69257;BME280;56376;53.356;-1.748;2022-12-18T04:42:17;99765.28;;;-1.45;100.00
69257;BME280;56376;53.356;-1.748;2022-12-18T04:44:42;99766.31;;;-1.34;100.00
69257;BME280;56376;53.356;-1.748;2022-12-18T04:47:08;99762.97;;;-1.29;100.00
69257;BME280;56376;53.356;-1.748;2022-12-18T04:49:33;99767.31;;;-1.24;100.00
69257;BME280;56376;53.356;-1.748;2022-12-18T04:51:58;99764.81;;;-1.21;100.00
69257;BME280;56376;53.356;-1.748;2022-12-18T04:54:24;99751.19;;;-1.17;100.00
69257;BME280;56376;53.356;-1.748;2022-12-18T04:56:50;99741.84;;;-1.13;100.00
69257;BME280;56376;53.356;-1.748;2022-12-18T04:59:16;99736.78;;;-1.10;100.00
69257;BME280;56376;53.356;-1.748;2022-12-18T05:01:41;99736.84;;;-1.04;100.00
69257;BME280;56376;53.356;-1.748;2022-12-18T05:04:06;99739.47;;;-0.99;100.00
69257;BME280;56376;53.356;-1.748;2022-12-18T05:06:32;99726.69;;;-0.96;100.00
69257;BME280;56376;53.356;-1.748;2022-12-18T05:08:57;99721.63;;;-0.92;100.00
69257;BME280;56376;53.356;-1.748;2022-12-18T05:11:23;99701.13;;;-0.90;100.00
69257;BME280;56376;53.356;-1.748;2022-12-18T05:13:48;99696.91;;;-0.87;100.00
69257;BME280;56376;53.356;-1.748;2022-12-18T05:16:14;99686.66;;;-0.83;100.00
69257;BME280;56376;53.356;-1.748;2022-12-18T05:18:40;99691.84;;;-0.79;100.00
69257;BME280;56376;53.356;-1.748;2022-12-18T05:21:05;99686.75;;;-0.76;100.00
69257;BME280;56376;53.356;-1.748;2022-12-18T05:23:34;99674.84;;;-0.72;100.00
69257;BME280;56376;53.356;-1.748;2022-12-18T05:26:03;99680.00;;;-0.69;100.00
69257;BME280;56376;53.356;-1.748;2022-12-18T05:28:30;99676.59;;;-0.68;100.00
69257;BME280;56376;53.356;-1.748;2022-12-18T05:30:58;99679.19;;;-0.67;100.00
69257;BME280;56376;53.356;-1.748;2022-12-18T05:33:25;99686.91;;;-0.63;100.00
69257;BME280;56376;53.356;-1.748;2022-12-18T05:35:52;99676.66;;;-0.62;100.00
69257;BME280;56376;53.356;-1.748;2022-12-18T05:38:19;99669.84;;;-0.60;100.00
69257;BME280;56376;53.356;-1.748;2022-12-18T05:40:45;99671.53;;;-0.62;100.00
69257;BME280;56376;53.356;-1.748;2022-12-18T05:43:11;99675.88;;;-0.58;100.00
69257;BME280;56376;53.356;-1.748;2022-12-18T05:45:37;99668.19;;;-0.58;100.00
69257;BME280;56376;53.356;-1.748;2022-12-18T05:48:03;99680.19;;;-0.54;100.00
69257;BME280;56376;53.356;-1.748;2022-12-18T05:50:29;99690.44;;;-0.54;100.00
69257;BME280;56376;53.356;-1.748;2022-12-18T05:52:54;99680.19;;;-0.54;100.00
69257;BME280;56376;53.356;-1.748;2022-12-18T05:55:19;99690.47;;;-0.51;100.00
69257;BME280;56376;53.356;-1.748;2022-12-18T05:57:45;99696.47;;;-0.52;100.00
69257;BME280;56376;53.356;-1.748;2022-12-18T06:00:11;99703.28;;;-0.51;100.00
69257;BME280;56376;53.356;-1.748;2022-12-18T06:02:36;99701.63;;;-0.49;100.00
69257;BME280;56376;53.356;-1.748;2022-12-18T06:05:02;99702.50;;;-0.47;100.00
69257;BME280;56376;53.356;-1.748;2022-12-18T06:07:27;99693.94;;;-0.46;100.00
69257;BME280;56376;53.356;-1.748;2022-12-18T06:09:53;99689.69;;;-0.44;100.00
69257;BME280;56376;53.356;-1.748;2022-12-18T06:12:18;99674.28;;;-0.45;100.00
69257;BME280;56376;53.356;-1.748;2022-12-18T06:14:43;99667.44;;;-0.45;100.00
69257;BME280;56376;53.356;-1.748;2022-12-18T06:17:09;99661.47;;;-0.44;100.00
69257;BME280;56376;53.356;-1.748;2022-12-18T06:19:34;99678.59;;;-0.41;100.00
69257;BME280;56376;53.356;-1.748;2022-12-18T06:22:00;99677.75;;;-0.41;100.00
69257;BME280;56376;53.356;-1.748;2022-12-18T06:24:25;99671.66;;;-0.48;100.00
69257;BME280;56376;53.356;-1.748;2022-12-18T06:26:50;99667.44;;;-0.46;100.00
69257;BME280;56376;53.356;-1.748;2022-12-18T06:29:16;99666.56;;;-0.47;100.00
69257;BME280;56376;53.356;-1.748;2022-12-18T06:31:41;99664.88;;;-0.45;100.00
69257;BME280;56376;53.356;-1.748;2022-12-18T06:34:07;99661.44;;;-0.47;100.00
69257;BME280;56376;53.356;-1.748;2022-12-18T06:36:32;99670.88;;;-0.44;100.00
69257;BME280;56376;53.356;-1.748;2022-12-18T06:38:57;99662.28;;;-0.46;100.00
69257;BME280;56376;53.356;-1.748;2022-12-18T06:41:23;99664.03;;;-0.45;100.00
69257;BME280;56376;53.356;-1.748;2022-12-18T06:43:49;99683.69;;;-0.46;100.00
69257;BME280;56376;53.356;-1.748;2022-12-18T06:46:14;99681.13;;;-0.47;100.00
69257;BME280;56376;53.356;-1.748;2022-12-18T06:48:40;99684.56;;;-0.45;100.00
69257;BME280;56376;53.356;-1.748;2022-12-18T06:51:06;99682.00;;;-0.45;100.00
69257;BME280;56376;53.356;-1.748;2022-12-18T06:53:32;99677.69;;;-0.46;100.00
69257;BME280;56376;53.356;-1.748;2022-12-18T06:56:05;99673.41;;;-0.46;100.00
69257;BME280;56376;53.356;-1.748;2022-12-18T06:58:31;99664.88;;;-0.45;100.00
69257;BME280;56376;53.356;-1.748;2022-12-18T07:01:02;99666.59;;;-0.45;100.00
69257;BME280;56376;53.356;-1.748;2022-12-18T07:03:27;99662.28;;;-0.46;100.00
69257;BME280;56376;53.356;-1.748;2022-12-18T07:05:53;99657.19;;;-0.43;100.00
69257;BME280;56376;53.356;-1.748;2022-12-18T07:08:18;99658.91;;;-0.45;100.00
69257;BME280;56376;53.356;-1.748;2022-12-18T07:10:44;99664.88;;;-0.45;100.00
69257;BME280;56376;53.356;-1.748;2022-12-18T07:13:10;99654.63;;;-0.45;100.00
69257;BME280;56376;53.356;-1.748;2022-12-18T07:15:35;99659.75;;;-0.43;100.00
69257;BME280;56376;53.356;-1.748;2022-12-18T07:18:01;99664.03;;;-0.44;100.00
69257;BME280;56376;53.356;-1.748;2022-12-18T07:20:26;99667.47;;;-0.41;100.00
69257;BME280;56376;53.356;-1.748;2022-12-18T07:22:51;99650.38;;;-0.41;100.00
69257;BME280;56376;53.356;-1.748;2022-12-18T07:25:17;99642.69;;;-0.39;100.00
69257;BME280;56376;53.356;-1.748;2022-12-18T07:27:42;99640.13;;;-0.39;100.00
69257;BME280;56376;53.356;-1.748;2022-12-18T07:30:08;99641.84;;;-0.38;100.00
69257;BME280;56376;53.356;-1.748;2022-12-18T07:32:34;99627.28;;;-0.39;100.00
69257;BME280;56376;53.356;-1.748;2022-12-18T07:34:59;99629.00;;;-0.40;100.00
69257;BME280;56376;53.356;-1.748;2022-12-18T07:37:25;99623.81;;;-0.43;100.00
69257;BME280;56376;53.356;-1.748;2022-12-18T07:39:50;99620.41;;;-0.40;100.00
69257;BME280;56376;53.356;-1.748;2022-12-18T07:42:15;99615.28;;;-0.44;100.00
69257;BME280;56376;53.356;-1.748;2022-12-18T07:44:56;99621.25;;;-0.45;100.00
69257;BME280;56376;53.356;-1.748;2022-12-18T07:47:22;99621.25;;;-0.45;100.00
69257;BME280;56376;53.356;-1.748;2022-12-18T07:49:48;99620.41;;;-0.45;100.00
69257;BME280;56376;53.356;-1.748;2022-12-18T07:52:13;99627.22;;;-0.46;100.00
69257;BME280;56376;53.356;-1.748;2022-12-18T07:54:38;99618.66;;;-0.48;100.00
69257;BME280;56376;53.356;-1.748;2022-12-18T07:57:05;99620.38;;;-0.47;100.00
69257;BME280;56376;53.356;-1.748;2022-12-18T07:59:31;99627.22;;;-0.47;100.00
69257;BME280;56376;53.356;-1.748;2022-12-18T08:01:56;99640.91;;;-0.47;100.00
69257;BME280;56376;53.356;-1.748;2022-12-18T08:04:22;99628.94;;;-0.48;100.00
69257;BME280;56376;53.356;-1.748;2022-12-18T08:06:47;99626.38;;;-0.43;100.00
69257;BME280;56376;53.356;-1.748;2022-12-18T08:09:12;99626.38;;;-0.45;100.00
69257;BME280;56376;53.356;-1.748;2022-12-18T08:11:38;99645.25;;;-0.42;100.00
69257;BME280;56376;53.356;-1.748;2022-12-18T08:14:03;99649.50;;;-0.41;100.00
69257;BME280;56376;53.356;-1.748;2022-12-18T08:16:29;99637.53;;;-0.42;100.00
69257;BME280;56376;53.356;-1.748;2022-12-18T08:18:55;99636.66;;;-0.43;100.00
69257;BME280;56376;53.356;-1.748;2022-12-18T08:21:23;99639.25;;;-0.41;100.00
69257;BME280;56376;53.356;-1.748;2022-12-18T08:23:50;99634.13;;;-0.41;100.00
69257;BME280;56376;53.356;-1.748;2022-12-18T08:26:16;99642.66;;;-0.41;100.00
69257;BME280;56376;53.356;-1.748;2022-12-18T08:28:42;99637.53;;;-0.41;100.00
69257;BME280;56376;53.356;-1.748;2022-12-18T08:31:08;99628.94;;;-0.43;100.00
69257;BME280;56376;53.356;-1.748;2022-12-18T08:33:34;99633.28;;;-0.39;100.00
69257;BME280;56376;53.356;-1.748;2022-12-18T08:36:01;99622.16;;;-0.39;100.00
69257;BME280;56376;53.356;-1.748;2022-12-18T08:38:27;99617.03;;;-0.39;100.00
69257;BME280;56376;53.356;-1.748;2022-12-18T08:41:03;99624.69;;;-0.41;100.00
69257;BME280;56376;53.356;-1.748;2022-12-18T08:43:28;99615.28;;;-0.44;100.00
69257;BME280;56376;53.356;-1.748;2022-12-18T08:46:16;99605.84;;;-0.43;100.00
69257;BME280;56376;53.356;-1.748;2022-12-18T08:48:42;99603.28;;;-0.45;100.00
69257;BME280;56376;53.356;-1.748;2022-12-18T08:51:09;99605.88;;;-0.45;100.00
69257;BME280;56376;53.356;-1.748;2022-12-18T08:53:37;99605.88;;;-0.45;100.00
69257;BME280;56376;53.356;-1.748;2022-12-18T08:56:03;99606.69;;;-0.46;100.00
69257;BME280;56376;53.356;-1.748;2022-12-18T08:58:29;99606.69;;;-0.47;100.00
69257;BME280;56376;53.356;-1.748;2022-12-18T09:01:02;99606.69;;;-0.46;100.00
69257;BME280;56376;53.356;-1.748;2022-12-18T09:03:28;99594.72;;;-0.47;100.00
69257;BME280;56376;53.356;-1.748;2022-12-18T09:05:54;99581.00;;;-0.49;100.00
69257;BME280;56376;53.356;-1.748;2022-12-18T09:08:19;99568.19;;;-0.49;100.00
69257;BME280;56376;53.356;-1.748;2022-12-18T09:10:46;99580.19;;;-0.45;100.00
69257;BME280;56376;53.356;-1.748;2022-12-18T09:13:13;99568.19;;;-0.47;100.00
69257;BME280;56376;53.356;-1.748;2022-12-18T09:15:43;99553.66;;;-0.47;100.00
69257;BME280;56376;53.356;-1.748;2022-12-18T09:18:11;99543.38;;;-0.47;100.00
69257;BME280;56376;53.356;-1.748;2022-12-18T09:20:37;99544.28;;;-0.45;100.00
69257;BME280;56376;53.356;-1.748;2022-12-18T09:23:03;99537.41;;;-0.46;100.00
69257;BME280;56376;53.356;-1.748;2022-12-18T09:25:29;99540.84;;;-0.44;100.00
69257;BME280;56376;53.356;-1.748;2022-12-18T09:28:26;99538.28;;;-0.44;100.00
69257;BME280;56376;53.356;-1.748;2022-12-18T09:30:50;99534.84;;;-0.46;100.00
69257;BME280;56376;53.356;-1.748;2022-12-18T09:33:16;99540.84;;;-0.44;100.00
69257;BME280;56376;53.356;-1.748;2022-12-18T09:35:43;99530.56;;;-0.47;100.00
69257;BME280;56376;53.356;-1.748;2022-12-18T09:38:13;99517.75;;;-0.45;100.00
69257;BME280;56376;53.356;-1.748;2022-12-18T09:40:47;99498.88;;;-0.49;100.00
69257;BME280;56376;53.356;-1.748;2022-12-18T09:43:21;99490.38;;;-0.48;100.00
69257;BME280;56376;53.356;-1.748;2022-12-18T09:45:52;99486.06;;;-0.46;100.00
69257;BME280;56376;53.356;-1.748;2022-12-18T09:48:34;99475.81;;;-0.47;100.00
69257;BME280;56376;53.356;-1.748;2022-12-18T09:51:12;99478.34;;;-0.49;100.00
69257;BME280;56376;53.356;-1.748;2022-12-18T09:53:41;99481.78;;;-0.48;100.00
69257;BME280;56376;53.356;-1.748;2022-12-18T09:56:16;99476.66;;;-0.50;100.00
69257;BME280;56376;53.356;-1.748;2022-12-18T09:58:51;99470.66;;;-0.52;100.00
69257;BME280;56376;53.356;-1.748;2022-12-18T10:01:24;99476.66;;;-0.50;100.00
69257;BME280;56376;53.356;-1.748;2022-12-18T10:03:50;99486.09;;;-0.47;100.00
69257;BME280;56376;53.356;-1.748;2022-12-18T10:06:36;99482.66;;;-0.46;100.00
69257;BME280;56376;53.356;-1.748;2022-12-18T10:09:39;99468.97;;;-0.47;100.00
69257;BME280;56376;53.356;-1.748;2022-12-18T10:12:23;99445.03;;;-0.47;100.00
69257;BME280;56376;53.356;-1.748;2022-12-18T10:20:44;99436.50;;;-0.41;100.00
69257;BME280;56376;53.356;-1.748;2022-12-18T10:26:08;99426.25;;;-0.40;100.00
69257;BME280;56376;53.356;-1.748;2022-12-18T10:28:40;99423.66;;;-0.41;100.00
69257;BME280;56376;53.356;-1.748;2022-12-18T10:31:18;99420.25;;;-0.40;100.00
69257;BME280;56376;53.356;-1.748;2022-12-18T10:33:45;99421.97;;;-0.39;100.00
69257;BME280;56376;53.356;-1.748;2022-12-18T10:36:10;99426.25;;;-0.35;100.00
69257;BME280;56376;53.356;-1.748;2022-12-18T10:38:36;99408.28;;;-0.35;100.00
69257;BME280;56376;53.356;-1.748;2022-12-18T10:41:04;99399.75;;;-0.34;100.00
69257;BME280;56376;53.356;-1.748;2022-12-18T10:43:32;99396.34;;;-0.33;100.00
69257;BME280;56376;53.356;-1.748;2022-12-18T10:48:26;99382.63;;;-0.37;100.00
69257;BME280;56376;53.356;-1.748;2022-12-18T10:50:52;99387.75;;;-0.38;100.00
69257;BME280;56376;53.356;-1.748;2022-12-18T10:53:27;99392.03;;;-0.36;100.00
69257;BME280;56376;53.356;-1.748;2022-12-18T10:55:56;99369.81;;;-0.37;100.00
69257;BME280;56376;53.356;-1.748;2022-12-18T10:58:32;99356.97;;;-0.34;100.00
69257;BME280;56376;53.356;-1.748;2022-12-18T11:01:13;99353.56;;;-0.34;100.00
69257;BME280;56376;53.356;-1.748;2022-12-18T11:03:44;99349.31;;;-0.32;100.00
69257;BME280;56376;53.356;-1.748;2022-12-18T11:06:14;99350.16;;;-0.32;100.00
69257;BME280;56376;53.356;-1.748;2022-12-18T11:08:42;99347.59;;;-0.32;100.00
69257;BME280;56376;53.356;-1.748;2022-12-18T11:11:22;99335.59;;;-0.31;100.00
69257;BME280;56376;53.356;-1.748;2022-12-18T11:16:26;99323.66;;;-0.28;100.00
69257;BME280;56376;53.356;-1.748;2022-12-18T11:18:52;99322.81;;;-0.25;100.00
69257;BME280;56376;53.356;-1.748;2022-12-18T11:21:18;99322.81;;;-0.22;100.00
69257;BME280;56376;53.356;-1.748;2022-12-18T11:23:51;99321.09;;;-0.23;100.00
69257;BME280;56376;53.356;-1.748;2022-12-18T11:26:17;99312.53;;;-0.24;100.00
69257;BME280;56376;53.356;-1.748;2022-12-18T11:28:50;99304.00;;;-0.23;100.00
69257;BME280;56376;53.356;-1.748;2022-12-18T11:31:27;99305.72;;;-0.20;100.00
69257;BME280;56376;53.356;-1.748;2022-12-18T11:34:09;99300.59;;;-0.17;100.00
69257;BME280;56376;53.356;-1.748;2022-12-18T11:36:42;99289.44;;;-0.20;100.00
69257;BME280;56376;53.356;-1.748;2022-12-18T11:41:47;99277.47;;;-0.20;100.00
69257;BME280;56376;53.356;-1.748;2022-12-18T11:44:40;99277.47;;;-0.20;100.00
69257;BME280;56376;53.356;-1.748;2022-12-18T11:47:24;99274.03;;;-0.20;100.00
69257;BME280;56376;53.356;-1.748;2022-12-18T11:49:55;99273.19;;;-0.19;100.00
69257;BME280;56376;53.356;-1.748;2022-12-18T11:52:28;99263.78;;;-0.19;100.00
69257;BME280;56376;53.356;-1.748;2022-12-18T11:55:00;99257.78;;;-0.21;100.00
69257;BME280;56376;53.356;-1.748;2022-12-18T11:57:35;99258.66;;;-0.17;100.00
69257;BME280;56376;53.356;-1.748;2022-12-18T12:00:20;99241.53;;;-0.17;100.00
69257;BME280;56376;53.356;-1.748;2022-12-18T12:19:15;99180.78;;;-0.07;100.00
69257;BME280;56376;53.356;-1.748;2022-12-18T12:35:02;99157.69;;;0.01;100.00
69257;BME280;56376;53.356;-1.748;2022-12-18T12:39:59;99148.28;;;0.03;100.00
69257;BME280;56376;53.356;-1.748;2022-12-18T12:42:32;99153.41;;;0.06;100.00
69257;BME280;56376;53.356;-1.748;2022-12-18T12:45:43;99143.97;;;0.05;100.00
69257;BME280;56376;53.356;-1.748;2022-12-18T12:48:16;99145.72;;;0.06;100.00
69257;BME280;56376;53.356;-1.748;2022-12-18T12:50:42;99135.44;;;0.06;100.00
69257;BME280;56376;53.356;-1.748;2022-12-18T12:53:17;99129.44;;;0.07;100.00
69257;BME280;56376;53.356;-1.748;2022-12-18T12:55:46;99141.41;;;0.09;100.00
69257;BME280;56376;53.356;-1.748;2022-12-18T12:58:25;99129.44;;;0.08;100.00
69257;BME280;56376;53.356;-1.748;2022-12-18T13:01:56;99120.00;;;0.07;100.00
69257;BME280;56376;53.356;-1.748;2022-12-18T13:09:12;99096.88;;;0.07;100.00
69257;BME280;56376;53.356;-1.748;2022-12-18T13:11:42;99084.94;;;0.08;100.00
69257;BME280;56376;53.356;-1.748;2022-12-18T13:14:36;99068.66;;;0.09;100.00
69257;BME280;56376;53.356;-1.748;2022-12-18T13:20:14;99060.97;;;0.10;100.00
69257;BME280;56376;53.356;-1.748;2022-12-18T13:22:46;99045.53;;;0.12;100.00
69257;BME280;56376;53.356;-1.748;2022-12-18T13:25:34;99052.38;;;0.10;100.00
69257;BME280;56376;53.356;-1.748;2022-12-18T13:43:48;99012.97;;;0.20;100.00
69257;BME280;56376;53.356;-1.748;2022-12-18T13:51:24;98984.72;;;0.23;100.00
69257;BME280;56376;53.356;-1.748;2022-12-18T13:53:55;98989.84;;;0.25;100.00
69257;BME280;56376;53.356;-1.748;2022-12-18T13:56:24;98982.16;;;0.23;100.00
69257;BME280;56376;53.356;-1.748;2022-12-18T13:59:17;98969.31;;;0.23;100.00
69257;BME280;56376;53.356;-1.748;2022-12-18T14:01:56;98959.88;;;0.24;100.00
69257;BME280;56376;53.356;-1.748;2022-12-18T14:04:28;98959.88;;;0.25;100.00
69257;BME280;56376;53.356;-1.748;2022-12-18T14:07:14;98971.03;;;0.26;100.00
69257;BME280;56376;53.356;-1.748;2022-12-18T14:09:46;98950.44;;;0.29;100.00
69257;BME280;56376;53.356;-1.748;2022-12-18T14:12:22;98944.47;;;0.28;100.00
69257;BME280;56376;53.356;-1.748;2022-12-18T14:17:58;98936.75;;;0.28;100.00
69257;BME280;56376;53.356;-1.748;2022-12-18T14:20:26;98933.31;;;0.31;100.00
69257;BME280;56376;53.356;-1.748;2022-12-18T14:22:52;98940.16;;;0.32;100.00
69257;BME280;56376;53.356;-1.748;2022-12-18T14:25:23;98929.03;;;0.31;100.00
69257;BME280;56376;53.356;-1.748;2022-12-18T14:30:43;98929.88;;;0.32;100.00
69257;BME280;56376;53.356;-1.748;2022-12-18T14:33:21;98913.63;;;0.31;100.00
69257;BME280;56376;53.356;-1.748;2022-12-18T14:36:01;98923.03;;;0.35;100.00
69257;BME280;56376;53.356;-1.748;2022-12-18T14:38:38;98916.13;;;0.37;100.00
69257;BME280;56376;53.356;-1.748;2022-12-18T14:41:15;98917.00;;;0.36;100.00
69257;BME280;56376;53.356;-1.748;2022-12-18T14:43:44;98908.44;;;0.37;100.00
69257;BME280;56376;53.356;-1.748;2022-12-18T14:48:59;98905.00;;;0.37;100.00
69257;BME280;56376;53.356;-1.748;2022-12-18T14:51:30;98902.44;;;0.37;100.00
69257;BME280;56376;53.356;-1.748;2022-12-18T14:54:14;98886.16;;;0.39;100.00
69257;BME280;56376;53.356;-1.748;2022-12-18T14:56:46;98877.59;;;0.37;100.00
69257;BME280;56376;53.356;-1.748;2022-12-18T14:59:15;98873.34;;;0.36;100.00